Time;durP1;ratioP1;P1;durP2;ratioP2;P2;SDS_P1;SDS_P2;PMS_P1;PMS_P2;Temp;Humidity;BMP_temperature;BMP_pressure;BME280_temperature;BME280_humidity;BME280_pressure;Samples;Min_cycle;Max_cycle;Signal;HPM_P1;HPM_P2
2023/03/13 00:00:25;;;;;;;1.77;0.70;;;14.60;49.30;;;;;;5088759;28;45420;-64
2023/03/13 00:02:53;;;;;;;0.73;0.68;;;14.60;49.30;;;;;;5088536;28;45370;-64
2023/03/13 00:05:20;;;;;;;1.08;0.80;;;14.60;49.30;;;;;;5088485;28;45410;-64
2023/03/13 00:07:46;;;;;;;1.02;0.75;;;14.60;49.30;;;;;;5088641;28;45254;-64
2023/03/13 00:10:14;;;;;;;1.98;0.75;;;14.60;49.20;;;;;;5088754;28;45253;-64
2023/03/13 00:12:40;;;;;;;0.63;0.50;;;14.60;49.90;;;;;;5088512;28;46729;-64
2023/03/13 00:15:09;;;;;;;0.80;0.80;;;14.60;49.30;;;;;;5088496;28;45416;-64
2023/03/13 00:17:36;;;;;;;0.85;0.80;;;14.60;49.30;;;;;;5088720;28;45278;-64
2023/03/13 00:20:06;;;;;;;0.73;0.68;;;14.60;49.30;;;;;;5089000;28;45327;-64
2023/03/13 00:22:33;;;;;;;1.40;0.80;;;14.50;49.30;;;;;;5088147;28;45550;-65
2023/03/13 00:25:00;;;;;;;0.50;0.50;;;14.60;49.30;;;;;;5088224;28;45407;-64
2023/03/13 00:27:26;;;;;;;0.50;0.50;;;14.60;49.30;;;;;;5088542;28;45254;-64
2023/03/13 00:29:53;;;;;;;1.05;0.63;;;14.60;49.30;;;;;;5088372;28;45379;-64
2023/03/13 00:32:20;;;;;;;1.55;0.80;;;14.60;49.30;;;;;;5087942;28;46374;-64
2023/03/13 00:34:47;;;;;;;1.00;0.50;;;14.60;49.30;;;;;;5087975;28;45404;-64
2023/03/13 00:37:15;;;;;;;0.88;0.70;;;14.60;49.30;;;;;;5088244;28;45420;-65
2023/03/13 00:39:43;;;;;;;0.73;0.70;;;14.60;49.20;;;;;;5088144;28;45246;-65
2023/03/13 00:42:10;;;;;;;1.73;0.80;;;14.60;49.30;;;;;;5087349;28;48258;-64
2023/03/13 00:44:37;;;;;;;1.13;0.70;;;14.50;49.30;;;;;;5087845;28;45371;-64
2023/03/13 00:47:06;;;;;;;0.82;0.60;;;14.60;49.30;;;;;;5087820;28;45299;-64
2023/03/13 00:58:06;;;;;;;1.60;0.57;;;14.60;49.30;;;;;;5088015;28;45414;-64
2023/03/13 01:00:33;;;;;;;0.85;0.68;;;14.50;49.30;;;;;;5088003;28;45403;-64
2023/03/13 01:05:44;;;;;;;1.27;0.77;;;14.50;49.30;;;;;;5086757;28;71195;-64
2023/03/13 01:08:12;;;;;;;0.60;0.60;;;14.50;49.30;;;;;;5087549;28;45333;-64
2023/03/13 01:10:38;;;;;;;1.27;0.70;;;14.50;49.30;;;;;;5087715;28;45565;-65
2023/03/13 01:13:07;;;;;;;0.80;0.60;;;14.50;49.30;;;;;;5087254;28;45415;-64
2023/03/13 01:15:35;;;;;;;0.75;0.75;;;14.50;49.90;;;;;;5087342;28;45368;-64
2023/03/13 01:18:02;;;;;;;1.70;0.60;;;14.50;49.30;;;;;;5087565;28;45374;-65
2023/03/13 01:20:29;;;;;;;1.33;0.88;;;14.50;49.30;;;;;;5087529;28;45505;-64
2023/03/13 01:22:56;;;;;;;0.70;0.70;;;14.60;49.30;;;;;;5087017;28;45439;-64
2023/03/13 01:25:23;;;;;;;0.70;0.70;;;14.60;49.30;;;;;;5087138;28;45354;-64
2023/03/13 01:27:50;;;;;;;0.70;0.70;;;14.60;49.30;;;;;;5087397;28;45324;-64
2023/03/13 01:30:18;;;;;;;0.82;0.60;;;14.60;49.30;;;;;;5087611;28;45577;-65
2023/03/13 01:32:45;;;;;;;0.90;0.75;;;14.60;49.30;;;;;;5087053;28;45328;-64
2023/03/13 01:35:12;;;;;;;0.85;0.70;;;14.60;49.30;;;;;;5087261;28;45333;-65
2023/03/13 01:37:39;;;;;;;0.80;0.70;;;14.60;49.30;;;;;;5087291;28;45331;-64
2023/03/13 01:40:06;;;;;;;0.65;0.50;;;14.60;49.30;;;;;;5087406;28;45246;-65
2023/03/13 01:42:51;;;;;;;0.88;0.70;;;14.60;49.40;;;;;;5086868;28;45428;-64
2023/03/13 01:45:55;;;;;;;0.90;0.65;;;14.60;49.30;;;;;;5086965;28;45318;-65
2023/03/13 01:48:25;;;;;;;0.52;0.50;;;14.60;49.40;;;;;;5086876;28;45308;-65
2023/03/13 01:50:53;;;;;;;0.55;0.50;;;14.60;49.30;;;;;;5087274;28;45237;-65
2023/03/13 01:53:20;;;;;;;1.30;0.60;;;14.60;49.30;;;;;;5086637;28;45498;-65
2023/03/13 01:55:46;;;;;;;0.73;0.70;;;14.50;49.30;;;;;;5086771;28;45306;-65
2023/03/13 01:58:16;;;;;;;0.60;0.50;;;14.50;49.30;;;;;;5087149;28;45318;-65
2023/03/13 02:00:43;;;;;;;0.75;0.70;;;14.50;49.30;;;;;;5087147;28;45495;-64
2023/03/13 02:03:11;;;;;;;0.70;0.45;;;14.50;49.40;;;;;;5086403;28;45539;-65
2023/03/13 02:05:39;;;;;;;0.68;0.55;;;14.50;49.40;;;;;;5085511;28;45603;-65
2023/03/13 02:08:08;;;;;;;0.88;0.70;;;14.50;49.40;;;;;;5086702;28;45300;-64
2023/03/13 02:10:36;;;;;;;0.88;0.70;;;14.50;49.40;;;;;;5086715;28;45323;-65
2023/03/13 02:13:03;;;;;;;0.85;0.70;;;14.50;49.30;;;;;;5086553;28;46427;-65
2023/03/13 02:15:30;;;;;;;0.55;0.55;;;14.50;49.30;;;;;;5086208;28;45309;-65
2023/03/13 02:17:56;;;;;;;0.57;0.57;;;14.50;49.40;;;;;;5086504;28;45427;-65
2023/03/13 02:20:23;;;;;;;1.15;0.50;;;14.50;49.40;;;;;;5086561;28;45267;-65
2023/03/13 02:22:54;;;;;;;0.68;0.60;;;14.50;49.40;;;;;;5086176;28;46396;-65
2023/03/13 02:25:43;;;;;;;0.45;0.45;;;14.50;49.40;;;;;;5102037;27;45223;-66
2023/03/13 02:28:12;;;;;;;0.90;0.65;;;14.50;49.40;;;;;;5102495;27;45264;-66
2023/03/13 02:30:39;;;;;;;0.73;0.73;;;14.50;49.40;;;;;;5102750;27;45388;-65
2023/03/13 02:33:05;;;;;;;0.75;0.60;;;14.50;49.40;;;;;;5102718;27;45366;-65
2023/03/13 02:35:32;;;;;;;0.73;0.65;;;14.50;49.40;;;;;;5102306;27;46749;-65
2023/03/13 02:38:02;;;;;;;0.68;0.60;;;14.40;49.40;;;;;;5099775;27;45406;-65
2023/03/13 02:40:29;;;;;;;1.00;0.85;;;14.40;49.50;;;;;;5099828;27;45392;-65
2023/03/13 02:42:59;;;;;;;0.82;0.50;;;14.40;49.50;;;;;;5102488;27;45651;-65
2023/03/13 02:45:26;;;;;;;0.47;0.47;;;14.40;49.50;;;;;;5102202;27;46686;-65
2023/03/13 02:47:53;;;;;;;0.45;0.43;;;14.40;49.50;;;;;;5102325;27;45378;-65
2023/03/13 02:50:20;;;;;;;0.60;0.57;;;14.40;49.50;;;;;;5102406;27;45595;-65
2023/03/13 02:52:49;;;;;;;0.50;0.50;;;14.40;49.50;;;;;;5102230;27;45308;-65
2023/03/13 02:55:17;;;;;;;0.45;0.45;;;14.40;49.60;;;;;;5102025;27;46919;-65
2023/03/13 02:57:44;;;;;;;0.40;0.40;;;14.40;49.50;;;;;;5102058;27;45385;-65
2023/03/13 03:00:15;;;;;;;0.55;0.50;;;14.40;49.50;;;;;;5102158;27;45260;-65
2023/03/13 03:02:42;;;;;;;0.45;0.43;;;14.40;49.50;;;;;;5102298;27;45446;-65
2023/03/13 03:05:13;;;;;;;0.25;0.25;;;14.40;49.60;;;;;;5101867;27;45484;-65
2023/03/13 03:07:42;;;;;;;0.77;0.55;;;14.40;49.60;;;;;;5102060;27;45250;-65
2023/03/13 03:10:11;;;;;;;0.77;0.40;;;14.40;49.50;;;;;;5102136;27;45374;-65
2023/03/13 03:12:38;;;;;;;0.50;0.50;;;14.40;49.60;;;;;;5102070;27;45479;-67
2023/03/13 03:15:05;;;;;;;0.45;0.45;;;14.40;49.60;;;;;;5101772;27;45266;-65
2023/03/13 03:17:33;;;;;;;0.65;0.60;;;14.40;49.60;;;;;;5101854;27;45343;-68
2023/03/13 03:20:00;;;;;;;0.52;0.40;;;14.40;49.60;;;;;;5101882;27;45455;-67
2023/03/13 03:22:27;;;;;;;0.40;0.40;;;14.40;49.60;;;;;;5101926;27;45250;-67
2023/03/13 03:24:54;;;;;;;1.58;0.40;;;14.40;49.60;;;;;;5101238;27;45287;-66
2023/03/13 03:27:20;;;;;;;1.20;0.60;;;14.40;49.60;;;;;;5101721;27;45265;-66
2023/03/13 03:29:47;;;;;;;0.30;0.30;;;14.40;49.70;;;;;;5101783;27;45410;-67
2023/03/13 03:32:14;;;;;;;0.40;0.38;;;14.30;49.60;;;;;;5101647;27;45399;-67
2023/03/13 03:34:43;;;;;;;1.05;0.68;;;14.40;49.70;;;;;;5100337;27;46726;-65
2023/03/13 03:37:09;;;;;;;0.93;0.50;;;14.30;49.60;;;;;;5087611;27;45314;-65
2023/03/13 03:39:36;;;;;;;0.50;0.50;;;14.30;49.60;;;;;;5087856;27;45134;-65
2023/03/13 03:42:04;;;;;;;0.75;0.50;;;14.30;49.60;;;;;;5087926;27;45289;-65
2023/03/13 03:44:30;;;;;;;1.48;0.50;;;14.30;49.60;;;;;;5087441;27;45440;-65
2023/03/13 03:46:57;;;;;;;1.10;0.50;;;14.30;49.60;;;;;;5087694;27;45322;-65
2023/03/13 03:49:24;;;;;;;0.52;0.52;;;14.30;49.60;;;;;;5087852;27;45253;-65
2023/03/13 03:51:52;;;;;;;0.40;0.40;;;14.30;49.60;;;;;;5087839;27;45177;-66
2023/03/13 03:54:19;;;;;;;1.02;0.60;;;14.30;49.60;;;;;;5087449;27;45472;-65
2023/03/13 03:56:46;;;;;;;0.65;0.60;;;14.30;49.60;;;;;;5087413;27;45386;-67
2023/03/13 03:59:13;;;;;;;1.13;0.57;;;14.30;49.60;;;;;;5087669;27;45296;-65
2023/03/13 04:01:40;;;;;;;0.50;0.50;;;14.30;49.70;;;;;;5087696;27;45241;-65
2023/03/13 04:04:07;;;;;;;0.85;0.70;;;14.30;49.70;;;;;;5087188;27;46762;-64
2023/03/13 04:06:34;;;;;;;0.60;0.60;;;14.30;49.70;;;;;;5087255;27;45352;-67
2023/03/13 04:09:02;;;;;;;0.43;0.43;;;14.30;49.70;;;;;;5087406;27;45415;-65
2023/03/13 04:11:29;;;;;;;0.60;0.60;;;14.30;49.70;;;;;;5087607;27;45306;-66
2023/03/13 04:13:55;;;;;;;0.40;0.40;;;14.30;49.80;;;;;;5087025;27;46407;-66
2023/03/13 04:16:23;;;;;;;0.40;0.40;;;14.30;49.80;;;;;;5087144;27;45291;-66
2023/03/13 04:18:50;;;;;;;0.60;0.60;;;14.30;49.80;;;;;;5087294;27;45400;-66
2023/03/13 04:21:16;;;;;;;0.38;0.38;;;14.30;49.80;;;;;;5087431;27;45374;-67
2023/03/13 04:23:43;;;;;;;0.45;0.45;;;14.30;49.80;;;;;;5086396;27;46355;-67
2023/03/13 04:26:12;;;;;;;0.52;0.52;;;14.30;49.80;;;;;;5087107;27;45157;-66
2023/03/13 04:28:38;;;;;;;0.60;0.60;;;14.30;49.80;;;;;;5087085;27;45328;-67
2023/03/13 04:31:05;;;;;;;0.50;0.50;;;14.30;49.80;;;;;;5087207;27;45418;-67
2023/03/13 04:33:33;;;;;;;1.13;0.47;;;14.30;49.80;;;;;;5086716;27;45429;-67
2023/03/13 04:36:00;;;;;;;0.77;0.40;;;14.30;49.80;;;;;;5087133;27;45248;-67
2023/03/13 04:38:26;;;;;;;0.40;0.40;;;14.30;49.90;;;;;;5086965;27;45319;-65
2023/03/13 04:40:53;;;;;;;0.52;0.50;;;14.30;50.50;;;;;;5087121;27;45380;-65
2023/03/13 04:43:22;;;;;;;0.40;0.40;;;14.30;49.80;;;;;;5086556;27;45424;-65
2023/03/13 04:45:49;;;;;;;0.73;0.73;;;14.30;49.90;;;;;;5086649;27;45327;-66
2023/03/13 04:48:16;;;;;;;0.82;0.50;;;14.30;49.90;;;;;;5085553;27;45285;-65
2023/03/13 04:50:42;;;;;;;0.57;0.43;;;14.20;49.90;;;;;;5086848;27;45517;-65
2023/03/13 04:53:09;;;;;;;0.20;0.20;;;14.30;50.00;;;;;;5086322;27;46367;-65
2023/03/13 04:55:36;;;;;;;0.50;0.47;;;14.30;49.90;;;;;;5086543;27;45438;-65
2023/03/13 04:58:03;;;;;;;0.57;0.57;;;14.20;49.90;;;;;;5086622;27;45465;-65
2023/03/13 05:00:31;;;;;;;0.65;0.50;;;14.30;50.00;;;;;;5086783;27;45361;-65
2023/03/13 05:02:58;;;;;;;0.30;0.30;;;14.30;50.00;;;;;;5086142;27;46409;-65
2023/03/13 05:05:25;;;;;;;0.35;0.35;;;14.30;50.00;;;;;;5086196;27;45404;-65
2023/03/13 05:07:52;;;;;;;0.95;0.65;;;14.30;50.00;;;;;;5086483;27;45324;-65
2023/03/13 05:10:19;;;;;;;0.65;0.55;;;14.20;49.90;;;;;;5086559;27;45265;-65
2023/03/13 05:12:46;;;;;;;0.40;0.40;;;14.30;50.10;;;;;;5086125;27;46411;-65
2023/03/13 05:15:13;;;;;;;0.70;0.40;;;14.30;50.00;;;;;;5086344;27;45257;-65
2023/03/13 05:17:41;;;;;;;0.82;0.40;;;14.30;50.00;;;;;;5086454;27;45347;-65
2023/03/13 05:20:10;;;;;;;0.50;0.50;;;14.30;50.10;;;;;;5086548;27;45316;-65
2023/03/13 05:22:36;;;;;;;0.43;0.40;;;14.20;50.00;;;;;;5086114;28;45348;-65
2023/03/13 05:25:04;;;;;;;0.60;0.30;;;14.20;50.00;;;;;;5085653;27;45180;-65
2023/03/13 05:27:31;;;;;;;0.40;0.40;;;14.30;50.10;;;;;;5086285;27;45321;-65
2023/03/13 05:29:57;;;;;;;0.52;0.40;;;14.20;50.10;;;;;;5086193;27;45447;-64
2023/03/13 05:32:24;;;;;;;0.47;0.47;;;14.30;50.10;;;;;;5085697;27;46308;-66
2023/03/13 05:34:52;;;;;;;0.57;0.43;;;14.20;50.00;;;;;;5085896;27;45271;-67
2023/03/13 05:37:21;;;;;;;0.47;0.47;;;14.30;50.10;;;;;;5086084;27;45341;-66
2023/03/13 05:39:48;;;;;;;0.40;0.40;;;14.30;50.10;;;;;;5086110;27;45524;-67
2023/03/13 05:42:15;;;;;;;0.68;0.47;;;14.20;50.00;;;;;;5085649;27;45484;-64
2023/03/13 05:44:41;;;;;;;0.40;0.40;;;14.20;50.00;;;;;;5085559;27;45343;-66
2023/03/13 05:47:08;;;;;;;0.57;0.35;;;14.30;50.00;;;;;;5086029;27;45281;-65
2023/03/13 05:49:35;;;;;;;0.30;0.30;;;14.20;49.90;;;;;;5085955;27;45350;-66
2023/03/13 05:52:03;;;;;;;0.40;0.40;;;14.20;50.00;;;;;;5085426;27;46501;-65
2023/03/13 05:54:30;;;;;;;0.43;0.30;;;14.20;50.00;;;;;;5085541;27;45341;-66
2023/03/13 05:56:57;;;;;;;0.75;0.63;;;14.20;49.90;;;;;;5085773;27;45209;-66
2023/03/13 05:59:24;;;;;;;0.30;0.30;;;14.20;49.90;;;;;;5085439;27;45220;-67
2023/03/13 06:01:51;;;;;;;0.35;0.35;;;14.20;50.00;;;;;;5085168;27;46380;-68
2023/03/13 06:04:18;;;;;;;0.30;0.30;;;14.20;50.00;;;;;;5085307;27;45400;-67
2023/03/13 06:06:44;;;;;;;0.80;0.45;;;14.20;50.00;;;;;;5085512;27;45265;-65
2023/03/13 06:09:12;;;;;;;0.38;0.38;;;14.20;50.00;;;;;;5085637;27;45261;-65
2023/03/13 06:11:40;;;;;;;0.40;0.30;;;14.20;50.00;;;;;;5085158;27;46708;-65
2023/03/13 06:14:07;;;;;;;0.35;0.35;;;14.20;50.00;;;;;;5085219;27;45409;-66
2023/03/13 06:16:34;;;;;;;0.30;0.30;;;14.20;50.00;;;;;;5085487;27;45316;-66
2023/03/13 06:19:01;;;;;;;0.35;0.35;;;14.20;50.00;;;;;;5085500;27;45300;-66
2023/03/13 06:21:27;;;;;;;0.40;0.40;;;14.20;50.00;;;;;;5085046;27;47294;-66
2023/03/13 06:23:54;;;;;;;0.75;0.32;;;14.20;50.00;;;;;;5084991;27;45315;-68
2023/03/13 06:26:23;;;;;;;0.20;0.20;;;14.20;50.00;;;;;;5085236;27;45283;-67
2023/03/13 06:28:50;;;;;;;0.40;0.40;;;14.30;50.00;;;;;;5085413;27;45596;-67
2023/03/13 06:31:17;;;;;;;0.65;0.30;;;14.30;49.90;;;;;;5085006;27;47693;-67
2023/03/13 06:33:44;;;;;;;0.50;0.50;;;14.20;49.80;;;;;;5085053;27;45204;-66
2023/03/13 06:36:11;;;;;;;0.30;0.30;;;14.30;49.80;;;;;;5085283;27;45348;-65
2023/03/13 06:38:38;;;;;;;0.20;0.20;;;14.30;49.80;;;;;;5085303;27;45321;-65
2023/03/13 06:41:05;;;;;;;0.57;0.30;;;14.30;49.80;;;;;;5084895;27;45479;-65
2023/03/13 06:43:33;;;;;;;0.40;0.40;;;14.30;49.80;;;;;;5084808;27;45272;-65
2023/03/13 06:46:04;;;;;;;0.35;0.22;;;14.30;49.70;;;;;;5084870;27;45342;-66
2023/03/13 06:48:30;;;;;;;0.28;0.28;;;14.30;49.90;;;;;;5085111;27;45270;-65
2023/03/13 06:50:57;;;;;;;0.50;0.45;;;14.30;49.80;;;;;;5084812;27;46652;-65
2023/03/13 06:53:24;;;;;;;0.30;0.30;;;14.30;49.80;;;;;;5084790;27;45270;-65
2023/03/13 06:55:51;;;;;;;0.30;0.30;;;14.30;49.80;;;;;;5084861;27;45376;-65
2023/03/13 06:58:18;;;;;;;1.35;0.40;;;14.20;49.80;;;;;;5084927;27;45357;-67
2023/03/13 07:00:46;;;;;;;0.30;0.30;;;14.30;50.00;;;;;;5084480;27;46840;-67
2023/03/13 07:03:16;;;;;;;0.85;0.50;;;14.30;49.90;;;;;;5084575;27;45387;-66
2023/03/13 07:05:43;;;;;;;0.40;0.40;;;14.30;49.90;;;;;;5084544;27;45505;-67
2023/03/13 07:08:10;;;;;;;0.40;0.40;;;14.30;50.00;;;;;;5084826;27;45513;-66
2023/03/13 07:10:37;;;;;;;0.40;0.30;;;14.30;50.00;;;;;;5085403;27;47591;-66
2023/03/13 07:13:04;;;;;;;0.30;0.30;;;14.30;50.00;;;;;;5087926;27;45261;-66
2023/03/13 07:15:30;;;;;;;0.40;0.40;;;14.30;50.00;;;;;;5088200;27;45378;-67
2023/03/13 07:17:59;;;;;;;0.20;0.20;;;14.30;50.00;;;;;;5088112;27;45443;-65
2023/03/13 07:20:26;;;;;;;0.20;0.20;;;14.30;50.10;;;;;;5087713;27;45574;-67
2023/03/13 07:22:53;;;;;;;0.20;0.20;;;14.40;50.20;;;;;;5087915;27;45338;-66
2023/03/13 07:25:20;;;;;;;0.65;0.38;;;14.40;50.10;;;;;;5087586;27;45193;-66
2023/03/13 07:27:46;;;;;;;0.35;0.30;;;14.40;50.00;;;;;;5088098;27;45314;-67
2023/03/13 07:30:14;;;;;;;0.57;0.20;;;14.50;50.30;;;;;;5087543;27;45423;-66
2023/03/13 07:32:41;;;;;;;0.30;0.30;;;14.40;50.10;;;;;;5087646;27;45315;-66
2023/03/13 07:35:12;;;;;;;0.38;0.38;;;14.50;50.20;;;;;;5087761;27;45265;-66
2023/03/13 07:37:39;;;;;;;1.33;0.47;;;14.50;50.10;;;;;;5087981;27;45281;-66
2023/03/13 07:40:09;;;;;;;0.30;0.30;;;14.50;50.00;;;;;;5087457;27;46403;-66
2023/03/13 07:42:39;;;;;;;0.47;0.45;;;14.60;49.90;;;;;;5087478;27;45383;-66
2023/03/13 07:45:06;;;;;;;0.30;0.30;;;14.60;49.90;;;;;;5087814;27;45368;-66
2023/03/13 07:47:34;;;;;;;0.98;0.40;;;14.60;49.70;;;;;;5087755;27;45401;-65
2023/03/13 07:50:00;;;;;;;0.40;0.40;;;14.60;50.00;;;;;;5087295;27;45593;-66
2023/03/13 07:52:29;;;;;;;0.38;0.38;;;14.70;49.80;;;;;;5087380;27;45313;-66
2023/03/13 07:54:56;;;;;;;0.30;0.30;;;14.60;49.80;;;;;;5087515;27;45357;-65
2023/03/13 07:57:23;;;;;;;0.65;0.50;;;14.70;49.90;;;;;;5087651;27;45305;-66
2023/03/13 07:59:49;;;;;;;0.95;0.40;;;14.70;49.90;;;;;;5087205;27;46661;-66
2023/03/13 08:02:16;;;;;;;0.40;0.40;;;14.70;49.80;;;;;;5087329;27;45310;-66
2023/03/13 08:04:43;;;;;;;0.30;0.30;;;14.70;49.90;;;;;;5087308;27;45377;-66
2023/03/13 08:07:10;;;;;;;0.57;0.43;;;14.70;49.80;;;;;;5087486;27;45382;-65
2023/03/13 08:09:40;;;;;;;0.30;0.30;;;14.80;49.80;;;;;;5087000;27;45348;-65
2023/03/13 08:12:08;;;;;;;0.32;0.32;;;14.80;49.70;;;;;;5086961;27;45483;-65
2023/03/13 08:14:34;;;;;;;0.90;0.40;;;14.80;49.80;;;;;;5087214;27;45311;-65
2023/03/13 08:17:01;;;;;;;0.38;0.30;;;14.80;49.80;;;;;;5087279;27;45310;-65
2023/03/13 08:19:28;;;;;;;0.30;0.30;;;14.80;50.10;;;;;;5086757;27;45332;-66
2023/03/13 08:21:55;;;;;;;0.30;0.30;;;14.80;50.00;;;;;;5086933;27;45270;-65
2023/03/13 08:24:22;;;;;;;0.45;0.30;;;14.80;49.90;;;;;;5086691;27;45519;-65
2023/03/13 08:26:50;;;;;;;0.38;0.38;;;14.80;50.20;;;;;;5087089;27;45296;-65
2023/03/13 08:29:17;;;;;;;0.40;0.40;;;14.80;50.10;;;;;;5086765;27;46763;-65
2023/03/13 08:31:44;;;;;;;0.30;0.30;;;14.80;50.20;;;;;;5086733;27;45260;-66
2023/03/13 08:34:11;;;;;;;0.75;0.35;;;14.80;50.20;;;;;;5086875;27;45430;-66
2023/03/13 08:36:38;;;;;;;0.40;0.40;;;14.80;50.20;;;;;;5087077;27;45329;-66
2023/03/13 08:39:09;;;;;;;0.40;0.30;;;14.80;50.10;;;;;;5086516;27;46675;-65
2023/03/13 08:41:36;;;;;;;0.60;0.45;;;14.80;50.20;;;;;;5086689;27;45180;-65
2023/03/13 08:44:05;;;;;;;0.40;0.40;;;14.90;50.10;;;;;;5086631;27;45390;-65
2023/03/13 08:46:33;;;;;;;0.30;0.30;;;14.90;50.30;;;;;;5086923;27;45244;-66
2023/03/13 08:49:00;;;;;;;0.32;0.32;;;14.90;50.10;;;;;;5086583;27;45479;-65
2023/03/13 08:51:28;;;;;;;0.38;0.38;;;14.90;50.20;;;;;;5086471;27;45289;-65
2023/03/13 08:53:55;;;;;;;0.28;0.28;;;14.90;50.20;;;;;;5086501;27;45450;-65
2023/03/13 08:56:23;;;;;;;0.50;0.40;;;15.00;50.30;;;;;;5086892;27;45501;-65
2023/03/13 08:58:50;;;;;;;0.68;0.30;;;14.90;50.30;;;;;;5086181;27;45319;-65
2023/03/13 09:01:21;;;;;;;0.95;0.40;;;14.90;50.20;;;;;;5086493;27;45361;-65
2023/03/13 09:03:48;;;;;;;0.30;0.30;;;15.00;50.30;;;;;;5086514;27;45414;-65
2023/03/13 09:06:15;;;;;;;0.22;0.22;;;15.00;50.30;;;;;;5086314;27;45273;-65
2023/03/13 09:08:42;;;;;;;0.28;0.28;;;15.00;50.30;;;;;;5085993;27;46419;-65
2023/03/13 09:11:10;;;;;;;0.30;0.30;;;15.10;50.20;;;;;;5086147;27;45380;-65
2023/03/13 09:13:38;;;;;;;0.20;0.20;;;15.10;50.20;;;;;;5086292;27;45402;-65
2023/03/13 09:16:06;;;;;;;0.25;0.25;;;15.10;50.20;;;;;;5086357;27;45320;-65
2023/03/13 09:18:34;;;;;;;0.50;0.35;;;15.10;50.10;;;;;;5085830;27;45368;-65
2023/03/13 09:21:01;;;;;;;0.30;0.30;;;15.20;50.20;;;;;;5085603;27;45418;-65
2023/03/13 09:23:28;;;;;;;0.30;0.30;;;15.20;50.10;;;;;;5085566;27;45351;-65
2023/03/13 09:25:55;;;;;;;0.40;0.40;;;15.20;49.80;;;;;;5086206;27;45278;-64
2023/03/13 09:28:22;;;;;;;0.20;0.20;;;15.30;49.80;;;;;;5085817;27;46750;-65
2023/03/13 09:30:49;;;;;;;0.20;0.20;;;15.30;49.80;;;;;;5085867;27;45358;-65
2023/03/13 09:33:16;;;;;;;0.20;0.20;;;15.30;49.70;;;;;;5085179;27;45350;-65
2023/03/13 09:35:49;;;;;;;0.38;0.38;;;15.30;49.60;;;;;;5086119;27;45474;-65
2023/03/13 09:38:16;;;;;;;0.40;0.40;;;15.40;49.70;;;;;;5085683;27;45400;-65
2023/03/13 09:40:45;;;;;;;0.52;0.20;;;15.40;49.40;;;;;;5085603;27;45365;-65
2023/03/13 09:43:19;;;;;;;0.30;0.30;;;15.40;49.50;;;;;;5085740;27;45263;-65
2023/03/13 09:45:47;;;;;;;0.25;0.25;;;15.50;49.40;;;;;;5085919;27;45340;-65
2023/03/13 09:48:28;;;;;;;0.45;0.45;;;15.50;49.40;;;;;;5085524;27;45724;-65
2023/03/13 09:50:59;;;;;;;0.73;0.30;;;15.50;49.30;;;;;;5085550;27;45319;-66
2023/03/13 09:53:31;;;;;;;0.55;0.30;;;15.50;49.20;;;;;;5085568;27;45377;-66
2023/03/13 09:55:58;;;;;;;0.93;0.40;;;15.60;49.20;;;;;;5085640;27;45515;-65
2023/03/13 09:58:27;;;;;;;0.20;0.20;;;15.60;49.30;;;;;;5085212;28;47772;-65
2023/03/13 10:00:54;;;;;;;0.25;0.25;;;15.60;49.30;;;;;;5085548;27;45336;-65
2023/03/13 10:03:23;;;;;;;0.55;0.40;;;15.60;49.30;;;;;;5085430;27;45310;-65
2023/03/13 10:05:51;;;;;;;0.28;0.28;;;15.60;49.20;;;;;;5085668;27;45320;-65
2023/03/13 10:08:19;;;;;;;0.50;0.47;;;15.70;49.30;;;;;;5085408;27;45396;-64
2023/03/13 10:10:48;;;;;;;0.30;0.30;;;15.70;49.80;;;;;;5085161;27;45368;-64
2023/03/13 10:13:18;;;;;;;0.28;0.28;;;15.80;49.30;;;;;;5085421;27;45362;-64
2023/03/13 10:15:46;;;;;;;0.65;0.40;;;15.80;49.20;;;;;;5085747;27;45392;-66
2023/03/13 10:18:19;;;;;;;0.95;0.40;;;15.80;49.30;;;;;;5085302;27;45207;-68
2023/03/13 10:20:46;;;;;;;0.40;0.35;;;15.90;49.30;;;;;;5085377;27;45272;-66
2023/03/13 10:23:15;;;;;;;0.30;0.30;;;15.90;49.40;;;;;;5085244;27;45255;-67
2023/03/13 10:25:44;;;;;;;0.30;0.30;;;15.90;49.40;;;;;;5085515;27;45474;-65
2023/03/13 10:28:11;;;;;;;0.82;0.30;;;15.90;49.40;;;;;;5085201;27;46356;-66
2023/03/13 10:30:38;;;;;;;0.30;0.30;;;16.00;49.60;;;;;;5085230;27;45276;-66
2023/03/13 10:33:18;;;;;;;0.57;0.57;;;16.00;49.60;;;;;;5085254;27;45377;-66
2023/03/13 10:35:46;;;;;;;0.30;0.30;;;16.10;49.60;;;;;;5085429;27;45177;-66
2023/03/13 10:38:14;;;;;;;0.20;0.20;;;16.10;49.60;;;;;;5085067;27;46716;-65
2023/03/13 10:40:41;;;;;;;0.40;0.40;;;16.20;49.60;;;;;;5085232;27;45251;-66
2023/03/13 10:43:18;;;;;;;0.70;0.30;;;16.20;49.70;;;;;;5085053;27;45321;-66
2023/03/13 10:45:45;;;;;;;0.40;0.40;;;16.30;49.80;;;;;;5086612;27;45292;-65
2023/03/13 10:48:13;;;;;;;1.75;0.50;;;16.30;49.80;;;;;;5088364;27;46667;-65
2023/03/13 10:50:42;;;;;;;0.73;0.30;;;16.30;49.90;;;;;;5088693;27;45216;-66
2023/03/13 10:53:21;;;;;;;0.60;0.38;;;16.40;50.00;;;;;;5088654;27;45272;-66
2023/03/13 10:55:48;;;;;;;0.47;0.47;;;16.40;49.90;;;;;;5088838;27;45396;-65
2023/03/13 10:58:19;;;;;;;0.63;0.30;;;16.50;50.00;;;;;;5088746;27;45391;-66
2023/03/13 11:00:46;;;;;;;0.40;0.40;;;16.60;49.90;;;;;;5088524;27;45316;-65
2023/03/13 11:03:16;;;;;;;0.80;0.32;;;16.70;49.80;;;;;;5088793;27;45320;-65
2023/03/13 11:05:43;;;;;;;0.68;0.50;;;16.80;49.70;;;;;;5088628;27;45321;-65
2023/03/13 11:08:20;;;;;;;0.82;0.40;;;16.80;49.60;;;;;;5088188;27;45601;-65
2023/03/13 11:10:55;;;;;;;0.40;0.30;;;16.90;49.50;;;;;;5088256;27;45323;-65
2023/03/13 11:13:35;;;;;;;0.43;0.20;;;17.00;49.40;;;;;;5088421;27;45189;-65
2023/03/13 11:16:14;;;;;;;0.20;0.20;;;17.10;49.30;;;;;;5088449;27;45414;-65
2023/03/13 11:18:43;;;;;;;0.68;0.20;;;17.20;49.30;;;;;;5088226;27;45410;-65
2023/03/13 11:21:11;;;;;;;0.40;0.40;;;17.20;49.50;;;;;;5088195;27;45376;-65
2023/03/13 11:23:39;;;;;;;0.22;0.22;;;17.30;49.10;;;;;;5087727;27;45359;-65
2023/03/13 11:26:10;;;;;;;0.30;0.30;;;17.40;49.10;;;;;;5088386;27;45269;-65
2023/03/13 11:28:46;;;;;;;0.32;0.32;;;17.50;49.30;;;;;;5088088;27;46434;-65
2023/03/13 11:31:14;;;;;;;0.85;0.40;;;17.60;49.20;;;;;;5087701;27;45344;-65
2023/03/13 11:33:51;;;;;;;0.20;0.20;;;17.70;49.30;;;;;;5088161;27;45196;-66
2023/03/13 11:36:20;;;;;;;0.30;0.30;;;17.80;49.00;;;;;;5088573;27;45295;-64
2023/03/13 11:38:49;;;;;;;0.63;0.20;;;17.90;49.00;;;;;;5087752;27;47362;-65
2023/03/13 11:41:33;;;;;;;0.32;0.32;;;17.90;48.80;;;;;;5087925;27;45311;-65
2023/03/13 11:44:29;;;;;;;0.30;0.30;;;18.00;48.70;;;;;;5087449;27;45346;-69
2023/03/13 11:47:24;;;;;;;0.17;0.17;;;18.10;48.70;;;;;;5091917;27;45497;-66
2023/03/13 11:50:14;;;;;;;0.40;0.40;;;18.30;48.50;;;;;;5091982;27;46614;-66
2023/03/13 11:52:47;;;;;;;0.20;0.20;;;18.30;48.60;;;;;;5086396;27;45382;-66
2023/03/13 11:55:37;;;;;;;0.20;0.20;;;18.40;48.90;;;;;;5087436;27;45321;-66
2023/03/13 11:58:35;;;;;;;0.43;0.43;;;18.50;48.80;;;;;;5086498;27;45422;-67
2023/03/13 12:01:06;;;;;;;0.30;0.30;;;18.60;48.80;;;;;;5075412;27;45554;-66
2023/03/13 12:03:36;;;;;;;1.65;0.50;;;18.70;48.50;;;;;;5087262;27;45395;-67
2023/03/13 12:06:03;;;;;;;0.40;0.40;;;18.70;48.40;;;;;;5082977;27;45553;-66
2023/03/13 12:08:32;;;;;;;0.43;0.43;;;18.70;48.70;;;;;;5086496;28;45668;-66
2023/03/13 12:11:05;;;;;;;0.38;0.38;;;18.70;48.60;;;;;;5086237;27;46509;-66
2023/03/13 12:13:32;;;;;;;0.35;0.35;;;18.70;48.80;;;;;;5086532;28;45366;-65
2023/03/13 12:16:00;;;;;;;0.50;0.50;;;18.70;48.90;;;;;;5086773;27;45284;-66
2023/03/13 12:18:30;;;;;;;0.20;0.20;;;18.70;48.80;;;;;;5087452;27;45301;-66
2023/03/13 12:21:00;;;;;;;0.35;0.35;;;18.80;48.90;;;;;;5086922;27;46651;-66
2023/03/13 12:23:31;;;;;;;0.28;0.28;;;18.80;49.00;;;;;;5066289;28;45290;-66
2023/03/13 12:26:00;;;;;;;0.50;0.32;;;18.90;48.70;;;;;;5077954;28;45439;-65
2023/03/13 12:28:33;;;;;;;0.95;0.40;;;19.00;48.90;;;;;;5087053;27;45269;-66
2023/03/13 12:31:04;;;;;;;0.30;0.30;;;19.10;48.80;;;;;;5086983;27;45338;-66
2023/03/13 12:33:34;;;;;;;0.30;0.30;;;19.10;48.60;;;;;;5086677;27;45419;-66
2023/03/13 12:36:04;;;;;;;0.43;0.32;;;19.20;48.70;;;;;;5086175;27;45279;-67
2023/03/13 12:38:33;;;;;;;0.30;0.30;;;19.30;48.50;;;;;;5086740;27;45374;-67
2023/03/13 12:41:04;;;;;;;0.50;0.50;;;19.30;48.70;;;;;;5086715;27;46455;-67
2023/03/13 12:43:32;;;;;;;0.20;0.20;;;19.30;48.60;;;;;;5086389;27;45508;-67
2023/03/13 12:46:13;;;;;;;0.30;0.30;;;19.30;48.50;;;;;;5086179;27;45438;-68
2023/03/13 12:48:57;;;;;;;0.30;0.30;;;19.40;48.90;;;;;;5086826;27;45371;-66
2023/03/13 12:51:34;;;;;;;0.32;0.32;;;19.60;48.70;;;;;;5086554;27;46690;-66
2023/03/13 12:54:11;;;;;;;0.20;0.20;;;19.70;48.10;;;;;;5086695;27;45424;-66
2023/03/13 12:56:53;;;;;;;0.40;0.32;;;19.80;48.20;;;;;;5086864;27;45352;-66
2023/03/13 12:59:21;;;;;;;0.40;0.40;;;19.70;48.30;;;;;;5087048;27;44755;-66
2023/03/13 13:01:49;;;;;;;0.22;0.22;;;19.60;48.40;;;;;;5086522;27;45560;-66
2023/03/13 13:04:18;;;;;;;0.20;0.20;;;19.60;48.60;;;;;;5086508;27;45383;-67
2023/03/13 13:07:06;;;;;;;1.20;0.32;;;19.50;48.60;;;;;;5086748;27;45379;-66